sensor_id;sensor_type;location;lat;lon;timestamp;P1;durP1;ratioP1;P2;durP2;ratioP2
77111;SDS011;66064;50.226;14.344;2023-11-19T00:00:59;21.52;;;19.33;;
77111;SDS011;66064;50.226;14.344;2023-11-19T00:03:46;18.50;;;16.67;;
77111;SDS011;66064;50.226;14.344;2023-11-19T00:06:12;21.63;;;16.17;;
77111;SDS011;66064;50.226;14.344;2023-11-19T00:08:39;16.77;;;14.98;;
77111;SDS011;66064;50.226;14.344;2023-11-19T00:11:05;20.40;;;18.20;;
77111;SDS011;66064;50.226;14.344;2023-11-19T00:13:31;25.90;;;23.23;;
77111;SDS011;66064;50.226;14.344;2023-11-19T00:15:56;24.08;;;21.52;;
77111;SDS011;66064;50.226;14.344;2023-11-19T00:18:22;19.10;;;15.60;;
77111;SDS011;66064;50.226;14.344;2023-11-19T00:20:48;21.20;;;18.15;;
77111;SDS011;66064;50.226;14.344;2023-11-19T00:23:14;21.42;;;16.73;;
77111;SDS011;66064;50.226;14.344;2023-11-19T00:25:40;19.00;;;16.80;;
77111;SDS011;66064;50.226;14.344;2023-11-19T00:28:06;16.60;;;14.95;;
77111;SDS011;66064;50.226;14.344;2023-11-19T00:30:33;20.88;;;16.48;;
77111;SDS011;66064;50.226;14.344;2023-11-19T00:32:59;18.05;;;16.27;;
77111;SDS011;66064;50.226;14.344;2023-11-19T00:35:25;17.42;;;15.40;;
77111;SDS011;66064;50.226;14.344;2023-11-19T00:37:51;16.58;;;14.82;;
77111;SDS011;66064;50.226;14.344;2023-11-19T00:40:19;18.52;;;16.55;;
77111;SDS011;66064;50.226;14.344;2023-11-19T00:42:48;17.95;;;16.05;;
77111;SDS011;66064;50.226;14.344;2023-11-19T00:45:14;19.58;;;16.70;;
77111;SDS011;66064;50.226;14.344;2023-11-19T00:47:40;20.60;;;16.83;;
77111;SDS011;66064;50.226;14.344;2023-11-19T00:50:07;15.80;;;14.30;;
77111;SDS011;66064;50.226;14.344;2023-11-19T00:52:37;18.90;;;14.80;;
77111;SDS011;66064;50.226;14.344;2023-11-19T00:55:04;19.60;;;17.10;;
77111;SDS011;66064;50.226;14.344;2023-11-19T00:57:31;21.30;;;15.00;;
77111;SDS011;66064;50.226;14.344;2023-11-19T01:00:00;18.63;;;16.90;;
77111;SDS011;66064;50.226;14.344;2023-11-19T01:02:28;18.15;;;16.38;;
77111;SDS011;66064;50.226;14.344;2023-11-19T01:04:54;16.30;;;14.85;;
77111;SDS011;66064;50.226;14.344;2023-11-19T01:07:21;19.65;;;17.48;;
77111;SDS011;66064;50.226;14.344;2023-11-19T01:09:47;19.50;;;17.60;;
77111;SDS011;66064;50.226;14.344;2023-11-19T01:12:13;18.67;;;16.83;;
77111;SDS011;66064;50.226;14.344;2023-11-19T01:14:39;17.65;;;15.85;;
77111;SDS011;66064;50.226;14.344;2023-11-19T01:17:08;19.95;;;17.83;;
77111;SDS011;66064;50.226;14.344;2023-11-19T01:19:34;21.13;;;19.10;;
77111;SDS011;66064;50.226;14.344;2023-11-19T01:22:00;21.58;;;17.38;;
77111;SDS011;66064;50.226;14.344;2023-11-19T01:24:28;21.10;;;18.20;;
77111;SDS011;66064;50.226;14.344;2023-11-19T01:26:56;18.58;;;16.25;;
77111;SDS011;66064;50.226;14.344;2023-11-19T01:29:23;19.25;;;17.40;;
77111;SDS011;66064;50.226;14.344;2023-11-19T01:31:49;21.08;;;18.05;;
77111;SDS011;66064;50.226;14.344;2023-11-19T01:34:17;22.00;;;19.95;;
77111;SDS011;66064;50.226;14.344;2023-11-19T01:36:43;17.75;;;15.95;;
77111;SDS011;66064;50.226;14.344;2023-11-19T01:39:11;18.90;;;16.98;;
77111;SDS011;66064;50.226;14.344;2023-11-19T01:41:38;17.75;;;15.88;;
77111;SDS011;66064;50.226;14.344;2023-11-19T01:44:06;21.58;;;19.30;;
77111;SDS011;66064;50.226;14.344;2023-11-19T01:46:33;17.60;;;16.02;;
77111;SDS011;66064;50.226;14.344;2023-11-19T01:49:01;23.50;;;18.65;;
77111;SDS011;66064;50.226;14.344;2023-11-19T01:51:29;19.75;;;17.88;;
77111;SDS011;66064;50.226;14.344;2023-11-19T01:53:55;17.77;;;15.93;;
77111;SDS011;66064;50.226;14.344;2023-11-19T01:56:47;19.92;;;16.02;;
77111;SDS011;66064;50.226;14.344;2023-11-19T01:59:13;15.18;;;13.63;;
77111;SDS011;66064;50.226;14.344;2023-11-19T02:01:40;21.30;;;19.08;;
77111;SDS011;66064;50.226;14.344;2023-11-19T02:04:07;23.08;;;21.00;;
77111;SDS011;66064;50.226;14.344;2023-11-19T02:06:35;22.55;;;20.42;;
77111;SDS011;66064;50.226;14.344;2023-11-19T02:09:06;20.40;;;18.33;;
77111;SDS011;66064;50.226;14.344;2023-11-19T02:11:34;28.35;;;19.05;;
77111;SDS011;66064;50.226;14.344;2023-11-19T02:14:00;27.23;;;24.38;;
77111;SDS011;66064;50.226;14.344;2023-11-19T02:16:29;24.10;;;19.65;;
77111;SDS011;66064;50.226;14.344;2023-11-19T02:18:55;22.50;;;20.30;;
77111;SDS011;66064;50.226;14.344;2023-11-19T02:21:21;21.55;;;19.55;;
77111;SDS011;66064;50.226;14.344;2023-11-19T02:23:47;21.38;;;19.13;;
77111;SDS011;66064;50.226;14.344;2023-11-19T02:26:31;20.85;;;17.83;;
77111;SDS011;66064;50.226;14.344;2023-11-19T02:29:04;20.77;;;18.67;;
77111;SDS011;66064;50.226;14.344;2023-11-19T02:31:32;21.17;;;18.88;;
77111;SDS011;66064;50.226;14.344;2023-11-19T02:33:59;20.17;;;18.15;;
77111;SDS011;66064;50.226;14.344;2023-11-19T02:36:28;20.80;;;16.65;;
77111;SDS011;66064;50.226;14.344;2023-11-19T02:38:54;19.60;;;17.90;;
77111;SDS011;66064;50.226;14.344;2023-11-19T02:41:20;21.17;;;17.63;;
77111;SDS011;66064;50.226;14.344;2023-11-19T02:43:46;18.13;;;16.08;;
77111;SDS011;66064;50.226;14.344;2023-11-19T02:46:14;20.48;;;17.35;;
77111;SDS011;66064;50.226;14.344;2023-11-19T02:48:43;32.70;;;20.50;;
77111;SDS011;66064;50.226;14.344;2023-11-19T02:51:10;18.05;;;15.88;;
77111;SDS011;66064;50.226;14.344;2023-11-19T02:53:37;22.60;;;20.20;;
77111;SDS011;66064;50.226;14.344;2023-11-19T02:56:05;17.98;;;16.20;;
77111;SDS011;66064;50.226;14.344;2023-11-19T02:58:45;21.33;;;19.20;;
77111;SDS011;66064;50.226;14.344;2023-11-19T03:01:12;15.13;;;13.80;;
77111;SDS011;66064;50.226;14.344;2023-11-19T03:03:48;22.38;;;20.10;;
77111;SDS011;66064;50.226;14.344;2023-11-19T03:06:20;21.60;;;19.17;;
77111;SDS011;66064;50.226;14.344;2023-11-19T03:08:47;18.02;;;16.23;;
77111;SDS011;66064;50.226;14.344;2023-11-19T03:11:14;19.73;;;17.80;;
77111;SDS011;66064;50.226;14.344;2023-11-19T03:13:41;18.65;;;16.73;;
77111;SDS011;66064;50.226;14.344;2023-11-19T03:16:07;19.67;;;17.83;;
77111;SDS011;66064;50.226;14.344;2023-11-19T03:18:33;18.73;;;17.00;;
77111;SDS011;66064;50.226;14.344;2023-11-19T03:20:59;18.35;;;16.45;;
77111;SDS011;66064;50.226;14.344;2023-11-19T03:23:25;17.58;;;15.45;;
77111;SDS011;66064;50.226;14.344;2023-11-19T03:25:54;17.08;;;15.35;;
77111;SDS011;66064;50.226;14.344;2023-11-19T03:28:20;17.95;;;16.00;;
77111;SDS011;66064;50.226;14.344;2023-11-19T03:30:46;17.35;;;15.10;;
77111;SDS011;66064;50.226;14.344;2023-11-19T03:33:12;21.98;;;19.95;;
77111;SDS011;66064;50.226;14.344;2023-11-19T03:35:38;18.23;;;16.27;;
77111;SDS011;66064;50.226;14.344;2023-11-19T03:38:06;18.25;;;16.48;;
77111;SDS011;66064;50.226;14.344;2023-11-19T03:40:32;19.83;;;17.80;;
77111;SDS011;66064;50.226;14.344;2023-11-19T03:42:58;18.98;;;17.02;;
77111;SDS011;66064;50.226;14.344;2023-11-19T03:45:25;19.58;;;17.52;;
77111;SDS011;66064;50.226;14.344;2023-11-19T03:47:51;15.75;;;14.15;;
77111;SDS011;66064;50.226;14.344;2023-11-19T03:50:17;19.65;;;17.45;;
77111;SDS011;66064;50.226;14.344;2023-11-19T03:52:46;19.33;;;17.35;;
77111;SDS011;66064;50.226;14.344;2023-11-19T03:55:13;18.00;;;16.13;;
77111;SDS011;66064;50.226;14.344;2023-11-19T03:57:39;17.75;;;15.35;;
77111;SDS011;66064;50.226;14.344;2023-11-19T04:00:05;19.67;;;15.23;;
77111;SDS011;66064;50.226;14.344;2023-11-19T04:02:36;18.75;;;17.10;;
77111;SDS011;66064;50.226;14.344;2023-11-19T04:05:02;21.70;;;19.58;;
77111;SDS011;66064;50.226;14.344;2023-11-19T04:07:30;31.60;;;28.25;;
77111;SDS011;66064;50.226;14.344;2023-11-19T04:09:57;18.08;;;16.13;;
77111;SDS011;66064;50.226;14.344;2023-11-19T04:12:23;18.52;;;16.70;;
77111;SDS011;66064;50.226;14.344;2023-11-19T04:14:53;20.33;;;18.30;;
77111;SDS011;66064;50.226;14.344;2023-11-19T04:17:19;14.98;;;13.75;;
77111;SDS011;66064;50.226;14.344;2023-11-19T04:19:45;17.42;;;15.80;;
77111;SDS011;66064;50.226;14.344;2023-11-19T04:22:11;18.30;;;16.42;;
77111;SDS011;66064;50.226;14.344;2023-11-19T04:24:37;23.45;;;21.55;;
77111;SDS011;66064;50.226;14.344;2023-11-19T04:27:03;21.58;;;19.27;;
77111;SDS011;66064;50.226;14.344;2023-11-19T04:29:32;16.85;;;15.35;;
77111;SDS011;66064;50.226;14.344;2023-11-19T04:31:58;18.10;;;15.85;;
77111;SDS011;66064;50.226;14.344;2023-11-19T04:34:26;20.23;;;18.23;;
77111;SDS011;66064;50.226;14.344;2023-11-19T04:36:52;19.80;;;17.90;;
77111;SDS011;66064;50.226;14.344;2023-11-19T04:39:18;17.15;;;15.55;;
77111;SDS011;66064;50.226;14.344;2023-11-19T04:44:20;16.65;;;14.80;;
77111;SDS011;66064;50.226;14.344;2023-11-19T04:46:46;16.83;;;15.50;;
77111;SDS011;66064;50.226;14.344;2023-11-19T04:49:13;16.40;;;14.73;;
77111;SDS011;66064;50.226;14.344;2023-11-19T04:51:40;20.75;;;18.83;;
77111;SDS011;66064;50.226;14.344;2023-11-19T04:54:10;18.95;;;17.17;;
77111;SDS011;66064;50.226;14.344;2023-11-19T04:56:36;16.98;;;15.55;;
77111;SDS011;66064;50.226;14.344;2023-11-19T04:59:03;19.08;;;17.08;;
77111;SDS011;66064;50.226;14.344;2023-11-19T05:01:31;22.50;;;20.63;;
77111;SDS011;66064;50.226;14.344;2023-11-19T05:03:59;18.35;;;16.45;;
77111;SDS011;66064;50.226;14.344;2023-11-19T05:06:31;14.30;;;12.90;;
77111;SDS011;66064;50.226;14.344;2023-11-19T05:08:58;16.00;;;14.15;;
77111;SDS011;66064;50.226;14.344;2023-11-19T05:11:35;17.77;;;16.00;;
77111;SDS011;66064;50.226;14.344;2023-11-19T05:14:04;14.70;;;13.30;;
77111;SDS011;66064;50.226;14.344;2023-11-19T05:16:31;17.50;;;14.75;;
77111;SDS011;66064;50.226;14.344;2023-11-19T05:18:57;16.75;;;14.57;;
77111;SDS011;66064;50.226;14.344;2023-11-19T05:21:23;15.00;;;13.68;;
77111;SDS011;66064;50.226;14.344;2023-11-19T05:23:49;96.22;;;57.40;;
77111;SDS011;66064;50.226;14.344;2023-11-19T05:26:19;21.98;;;19.35;;
77111;SDS011;66064;50.226;14.344;2023-11-19T05:28:47;18.23;;;16.60;;
77111;SDS011;66064;50.226;14.344;2023-11-19T05:31:14;21.65;;;19.63;;
77111;SDS011;66064;50.226;14.344;2023-11-19T05:33:41;18.92;;;17.20;;
77111;SDS011;66064;50.226;14.344;2023-11-19T05:36:07;14.25;;;13.02;;
77111;SDS011;66064;50.226;14.344;2023-11-19T05:38:35;16.60;;;15.25;;
77111;SDS011;66064;50.226;14.344;2023-11-19T05:41:02;16.20;;;13.32;;
77111;SDS011;66064;50.226;14.344;2023-11-19T05:43:29;14.95;;;12.98;;
77111;SDS011;66064;50.226;14.344;2023-11-19T05:45:55;16.80;;;14.95;;
77111;SDS011;66064;50.226;14.344;2023-11-19T05:48:22;21.83;;;19.85;;
77111;SDS011;66064;50.226;14.344;2023-11-19T05:50:54;18.65;;;16.77;;
77111;SDS011;66064;50.226;14.344;2023-11-19T05:53:27;22.13;;;19.98;;
77111;SDS011;66064;50.226;14.344;2023-11-19T05:55:52;18.40;;;15.95;;
77111;SDS011;66064;50.226;14.344;2023-11-19T05:58:25;18.60;;;15.23;;
77111;SDS011;66064;50.226;14.344;2023-11-19T06:00:55;16.20;;;14.50;;
77111;SDS011;66064;50.226;14.344;2023-11-19T06:03:23;18.80;;;15.75;;
77111;SDS011;66064;50.226;14.344;2023-11-19T06:05:50;17.17;;;15.38;;
77111;SDS011;66064;50.226;14.344;2023-11-19T06:08:16;15.70;;;13.93;;
77111;SDS011;66064;50.226;14.344;2023-11-19T06:10:43;16.25;;;14.35;;
77111;SDS011;66064;50.226;14.344;2023-11-19T06:13:15;26.10;;;16.23;;
77111;SDS011;66064;50.226;14.344;2023-11-19T06:15:42;20.70;;;18.58;;
77111;SDS011;66064;50.226;14.344;2023-11-19T06:18:09;17.60;;;15.73;;
77111;SDS011;66064;50.226;14.344;2023-11-19T06:20:37;19.63;;;17.67;;
77111;SDS011;66064;50.226;14.344;2023-11-19T06:23:03;18.65;;;16.92;;
77111;SDS011;66064;50.226;14.344;2023-11-19T06:25:30;18.55;;;16.70;;
77111;SDS011;66064;50.226;14.344;2023-11-19T06:27:56;16.83;;;13.45;;
77111;SDS011;66064;50.226;14.344;2023-11-19T06:30:22;20.67;;;18.73;;
77111;SDS011;66064;50.226;14.344;2023-11-19T06:32:49;15.63;;;14.15;;
77111;SDS011;66064;50.226;14.344;2023-11-19T06:35:15;17.45;;;15.73;;
77111;SDS011;66064;50.226;14.344;2023-11-19T06:37:41;16.60;;;15.10;;
77111;SDS011;66064;50.226;14.344;2023-11-19T06:40:10;17.33;;;15.77;;
77111;SDS011;66064;50.226;14.344;2023-11-19T06:42:38;15.82;;;14.20;;
77111;SDS011;66064;50.226;14.344;2023-11-19T06:45:05;15.18;;;13.73;;
77111;SDS011;66064;50.226;14.344;2023-11-19T06:47:32;15.95;;;14.45;;
77111;SDS011;66064;50.226;14.344;2023-11-19T06:49:59;14.95;;;13.48;;
77111;SDS011;66064;50.226;14.344;2023-11-19T06:52:26;20.08;;;17.98;;
77111;SDS011;66064;50.226;14.344;2023-11-19T06:54:52;17.40;;;15.73;;
77111;SDS011;66064;50.226;14.344;2023-11-19T06:57:18;17.33;;;15.70;;
77111;SDS011;66064;50.226;14.344;2023-11-19T06:59:46;21.88;;;16.63;;
77111;SDS011;66064;50.226;14.344;2023-11-19T07:02:12;20.27;;;18.17;;
77111;SDS011;66064;50.226;14.344;2023-11-19T07:04:40;28.75;;;23.17;;
77111;SDS011;66064;50.226;14.344;2023-11-19T07:07:06;62.25;;;39.13;;
77111;SDS011;66064;50.226;14.344;2023-11-19T07:09:32;39.17;;;26.92;;
77111;SDS011;66064;50.226;14.344;2023-11-19T07:11:59;53.58;;;30.50;;
77111;SDS011;66064;50.226;14.344;2023-11-19T07:14:27;63.70;;;39.78;;
77111;SDS011;66064;50.226;14.344;2023-11-19T07:16:54;37.78;;;33.90;;
77111;SDS011;66064;50.226;14.344;2023-11-19T07:19:21;40.45;;;32.67;;
77111;SDS011;66064;50.226;14.344;2023-11-19T07:21:53;24.95;;;21.15;;
77111;SDS011;66064;50.226;14.344;2023-11-19T07:24:20;22.70;;;17.67;;
77111;SDS011;66064;50.226;14.344;2023-11-19T07:26:49;15.15;;;13.55;;
77111;SDS011;66064;50.226;14.344;2023-11-19T07:29:15;16.35;;;14.68;;
77111;SDS011;66064;50.226;14.344;2023-11-19T07:31:45;15.10;;;13.70;;
77111;SDS011;66064;50.226;14.344;2023-11-19T07:34:11;18.00;;;16.20;;
77111;SDS011;66064;50.226;14.344;2023-11-19T07:36:38;16.48;;;14.77;;
77111;SDS011;66064;50.226;14.344;2023-11-19T07:39:04;16.35;;;14.68;;
77111;SDS011;66064;50.226;14.344;2023-11-19T07:41:31;24.20;;;19.77;;
77111;SDS011;66064;50.226;14.344;2023-11-19T07:43:57;23.20;;;18.35;;
77111;SDS011;66064;50.226;14.344;2023-11-19T07:46:23;23.02;;;18.55;;
77111;SDS011;66064;50.226;14.344;2023-11-19T07:48:50;17.50;;;15.75;;
77111;SDS011;66064;50.226;14.344;2023-11-19T07:51:18;16.40;;;14.57;;
77111;SDS011;66064;50.226;14.344;2023-11-19T07:53:43;18.50;;;14.52;;
77111;SDS011;66064;50.226;14.344;2023-11-19T07:56:10;19.48;;;17.08;;
77111;SDS011;66064;50.226;14.344;2023-11-19T07:58:36;18.95;;;16.15;;
77111;SDS011;66064;50.226;14.344;2023-11-19T08:01:02;20.80;;;15.35;;
77111;SDS011;66064;50.226;14.344;2023-11-19T08:03:28;32.25;;;22.00;;
77111;SDS011;66064;50.226;14.344;2023-11-19T08:05:58;22.88;;;20.35;;
77111;SDS011;66064;50.226;14.344;2023-11-19T08:08:23;31.00;;;24.83;;
77111;SDS011;66064;50.226;14.344;2023-11-19T08:10:50;25.23;;;19.90;;
77111;SDS011;66064;50.226;14.344;2023-11-19T08:13:19;23.90;;;19.88;;
77111;SDS011;66064;50.226;14.344;2023-11-19T08:15:46;24.55;;;21.02;;
77111;SDS011;66064;50.226;14.344;2023-11-19T08:18:12;47.85;;;32.03;;
77111;SDS011;66064;50.226;14.344;2023-11-19T08:20:39;22.90;;;19.10;;
77111;SDS011;66064;50.226;14.344;2023-11-19T08:23:05;21.75;;;19.45;;
77111;SDS011;66064;50.226;14.344;2023-11-19T08:25:31;19.65;;;17.65;;
77111;SDS011;66064;50.226;14.344;2023-11-19T08:27:59;21.80;;;19.70;;
77111;SDS011;66064;50.226;14.344;2023-11-19T08:30:26;29.20;;;26.17;;
77111;SDS011;66064;50.226;14.344;2023-11-19T08:32:52;24.88;;;22.35;;
77111;SDS011;66064;50.226;14.344;2023-11-19T08:35:18;22.05;;;19.73;;
77111;SDS011;66064;50.226;14.344;2023-11-19T08:37:44;38.50;;;34.30;;
77111;SDS011;66064;50.226;14.344;2023-11-19T08:40:11;34.35;;;30.77;;
77111;SDS011;66064;50.226;14.344;2023-11-19T08:42:40;32.05;;;23.52;;
77111;SDS011;66064;50.226;14.344;2023-11-19T08:45:08;33.55;;;24.25;;
77111;SDS011;66064;50.226;14.344;2023-11-19T08:47:39;27.40;;;22.88;;
77111;SDS011;66064;50.226;14.344;2023-11-19T08:50:06;20.30;;;18.13;;
77111;SDS011;66064;50.226;14.344;2023-11-19T08:52:33;28.08;;;23.30;;
77111;SDS011;66064;50.226;14.344;2023-11-19T08:55:01;21.20;;;17.60;;
77111;SDS011;66064;50.226;14.344;2023-11-19T08:57:30;25.88;;;20.80;;
77111;SDS011;66064;50.226;14.344;2023-11-19T08:59:56;24.00;;;21.52;;
77111;SDS011;66064;50.226;14.344;2023-11-19T09:02:22;23.65;;;21.08;;
77111;SDS011;66064;50.226;14.344;2023-11-19T09:04:48;43.50;;;36.45;;
77111;SDS011;66064;50.226;14.344;2023-11-19T09:07:14;67.55;;;40.45;;
77111;SDS011;66064;50.226;14.344;2023-11-19T09:09:41;62.05;;;43.97;;
77111;SDS011;66064;50.226;14.344;2023-11-19T09:12:07;61.10;;;44.05;;
77111;SDS011;66064;50.226;14.344;2023-11-19T09:14:33;78.25;;;49.47;;
77111;SDS011;66064;50.226;14.344;2023-11-19T09:17:05;67.07;;;43.63;;
77111;SDS011;66064;50.226;14.344;2023-11-19T09:19:32;56.72;;;39.10;;
77111;SDS011;66064;50.226;14.344;2023-11-19T09:21:58;54.10;;;35.88;;
77111;SDS011;66064;50.226;14.344;2023-11-19T09:24:26;51.00;;;30.95;;
77111;SDS011;66064;50.226;14.344;2023-11-19T09:26:52;24.65;;;19.73;;
77111;SDS011;66064;50.226;14.344;2023-11-19T09:29:18;31.50;;;28.20;;
77111;SDS011;66064;50.226;14.344;2023-11-19T09:31:45;29.80;;;24.63;;
77111;SDS011;66064;50.226;14.344;2023-11-19T09:34:11;72.13;;;54.10;;
77111;SDS011;66064;50.226;14.344;2023-11-19T09:36:37;31.60;;;24.23;;
77111;SDS011;66064;50.226;14.344;2023-11-19T09:39:05;30.20;;;23.70;;
77111;SDS011;66064;50.226;14.344;2023-11-19T09:41:34;24.52;;;20.60;;
77111;SDS011;66064;50.226;14.344;2023-11-19T09:44:05;16.15;;;14.48;;
77111;SDS011;66064;50.226;14.344;2023-11-19T09:46:32;11.25;;;9.57;;
77111;SDS011;66064;50.226;14.344;2023-11-19T09:48:59;7.22;;;6.43;;
77111;SDS011;66064;50.226;14.344;2023-11-19T09:51:27;10.63;;;9.00;;
77111;SDS011;66064;50.226;14.344;2023-11-19T09:53:55;13.70;;;12.20;;
77111;SDS011;66064;50.226;14.344;2023-11-19T09:56:31;8.20;;;7.07;;
77111;SDS011;66064;50.226;14.344;2023-11-19T09:58:59;4.47;;;4.03;;
77111;SDS011;66064;50.226;14.344;2023-11-19T10:01:25;4.40;;;3.95;;
77111;SDS011;66064;50.226;14.344;2023-11-19T10:03:52;3.45;;;2.60;;
77111;SDS011;66064;50.226;14.344;2023-11-19T10:06:22;3.60;;;2.72;;
77111;SDS011;66064;50.226;14.344;2023-11-19T10:08:52;4.40;;;3.45;;
77111;SDS011;66064;50.226;14.344;2023-11-19T10:11:19;3.78;;;3.15;;
77111;SDS011;66064;50.226;14.344;2023-11-19T10:13:45;4.43;;;2.95;;
77111;SDS011;66064;50.226;14.344;2023-11-19T10:16:15;5.28;;;3.83;;
77111;SDS011;66064;50.226;14.344;2023-11-19T10:18:47;4.78;;;2.45;;
77111;SDS011;66064;50.226;14.344;2023-11-19T10:21:19;4.25;;;2.70;;
77111;SDS011;66064;50.226;14.344;2023-11-19T10:23:49;3.83;;;2.58;;
77111;SDS011;66064;50.226;14.344;2023-11-19T10:26:19;4.20;;;2.88;;
77111;SDS011;66064;50.226;14.344;2023-11-19T10:28:48;3.60;;;3.28;;
77111;SDS011;66064;50.226;14.344;2023-11-19T10:31:15;15.23;;;8.82;;
77111;SDS011;66064;50.226;14.344;2023-11-19T10:33:43;31.67;;;16.58;;
77111;SDS011;66064;50.226;14.344;2023-11-19T10:36:10;4.60;;;4.13;;
77111;SDS011;66064;50.226;14.344;2023-11-19T10:38:40;5.78;;;3.58;;
77111;SDS011;66064;50.226;14.344;2023-11-19T10:41:27;3.85;;;3.50;;
77111;SDS011;66064;50.226;14.344;2023-11-19T10:43:59;4.18;;;3.42;;
77111;SDS011;66064;50.226;14.344;2023-11-19T10:46:41;4.75;;;4.32;;
77111;SDS011;66064;50.226;14.344;2023-11-19T10:49:09;4.38;;;4.07;;
77111;SDS011;66064;50.226;14.344;2023-11-19T10:51:36;4.22;;;3.83;;
77111;SDS011;66064;50.226;14.344;2023-11-19T10:54:05;3.85;;;3.55;;
77111;SDS011;66064;50.226;14.344;2023-11-19T10:56:32;3.83;;;3.42;;
77111;SDS011;66064;50.226;14.344;2023-11-19T10:59:00;7.72;;;5.47;;
77111;SDS011;66064;50.226;14.344;2023-11-19T11:01:32;4.57;;;4.18;;
77111;SDS011;66064;50.226;14.344;2023-11-19T11:04:29;4.95;;;4.13;;
77111;SDS011;66064;50.226;14.344;2023-11-19T11:06:58;12.20;;;11.10;;
77111;SDS011;66064;50.226;14.344;2023-11-19T11:09:29;5.22;;;4.72;;
77111;SDS011;66064;50.226;14.344;2023-11-19T11:11:56;8.75;;;7.45;;
77111;SDS011;66064;50.226;14.344;2023-11-19T11:14:23;8.77;;;7.60;;
77111;SDS011;66064;50.226;14.344;2023-11-19T11:16:52;17.20;;;15.35;;
77111;SDS011;66064;50.226;14.344;2023-11-19T11:19:19;20.75;;;10.45;;
77111;SDS011;66064;50.226;14.344;2023-11-19T11:21:47;19.55;;;10.10;;
77111;SDS011;66064;50.226;14.344;2023-11-19T11:38:06;3.75;;;3.17;;
77111;SDS011;66064;50.226;14.344;2023-11-19T11:40:35;3.55;;;2.83;;
77111;SDS011;66064;50.226;14.344;2023-11-19T11:43:02;2.72;;;2.08;;
77111;SDS011;66064;50.226;14.344;2023-11-19T11:45:39;3.47;;;2.40;;
77111;SDS011;66064;50.226;14.344;2023-11-19T11:48:09;3.15;;;2.45;;
77111;SDS011;66064;50.226;14.344;2023-11-19T11:50:47;3.00;;;2.17;;
77111;SDS011;66064;50.226;14.344;2023-11-19T11:53:21;2.65;;;2.17;;
77111;SDS011;66064;50.226;14.344;2023-11-19T11:58:29;2.50;;;2.00;;
77111;SDS011;66064;50.226;14.344;2023-11-19T12:00:57;4.47;;;2.42;;
77111;SDS011;66064;50.226;14.344;2023-11-19T12:03:26;3.25;;;2.28;;
77111;SDS011;66064;50.226;14.344;2023-11-19T12:05:55;3.05;;;2.38;;
77111;SDS011;66064;50.226;14.344;2023-11-19T12:08:24;3.58;;;2.10;;
77111;SDS011;66064;50.226;14.344;2023-11-19T12:10:53;3.53;;;2.50;;
77111;SDS011;66064;50.226;14.344;2023-11-19T12:13:24;3.55;;;2.63;;
77111;SDS011;66064;50.226;14.344;2023-11-19T12:18:26;3.40;;;2.20;;
77111;SDS011;66064;50.226;14.344;2023-11-19T12:20:58;4.13;;;2.70;;
77111;SDS011;66064;50.226;14.344;2023-11-19T12:23:32;3.70;;;2.40;;
77111;SDS011;66064;50.226;14.344;2023-11-19T12:25:58;4.30;;;3.33;;
77111;SDS011;66064;50.226;14.344;2023-11-19T12:28:25;5.95;;;3.35;;
77111;SDS011;66064;50.226;14.344;2023-11-19T12:30:54;4.93;;;2.97;;
77111;SDS011;66064;50.226;14.344;2023-11-19T12:33:37;3.90;;;3.15;;
77111;SDS011;66064;50.226;14.344;2023-11-19T12:38:34;3.88;;;3.05;;
77111;SDS011;66064;50.226;14.344;2023-11-19T12:43:30;3.13;;;2.22;;
77111;SDS011;66064;50.226;14.344;2023-11-19T12:45:57;5.97;;;2.65;;
77111;SDS011;66064;50.226;14.344;2023-11-19T12:48:23;4.90;;;2.40;;
77111;SDS011;66064;50.226;14.344;2023-11-19T12:50:50;5.00;;;2.97;;
77111;SDS011;66064;50.226;14.344;2023-11-19T12:53:22;3.25;;;2.40;;
77111;SDS011;66064;50.226;14.344;2023-11-19T12:55:53;5.07;;;2.72;;
77111;SDS011;66064;50.226;14.344;2023-11-19T12:58:35;3.88;;;2.40;;
77111;SDS011;66064;50.226;14.344;2023-11-19T13:01:02;3.17;;;2.47;;
77111;SDS011;66064;50.226;14.344;2023-11-19T13:03:36;5.07;;;3.22;;
77111;SDS011;66064;50.226;14.344;2023-11-19T13:06:05;12.05;;;7.53;;
77111;SDS011;66064;50.226;14.344;2023-11-19T13:08:43;6.90;;;4.70;;
77111;SDS011;66064;50.226;14.344;2023-11-19T13:11:29;8.57;;;5.25;;
77111;SDS011;66064;50.226;14.344;2023-11-19T13:13:57;10.35;;;6.90;;
77111;SDS011;66064;50.226;14.344;2023-11-19T13:16:26;5.80;;;4.38;;
77111;SDS011;66064;50.226;14.344;2023-11-19T13:18:53;25.88;;;16.63;;
77111;SDS011;66064;50.226;14.344;2023-11-19T13:21:20;5.32;;;4.10;;
77111;SDS011;66064;50.226;14.344;2023-11-19T13:23:46;10.50;;;7.25;;
77111;SDS011;66064;50.226;14.344;2023-11-19T13:26:13;9.95;;;7.35;;
77111;SDS011;66064;50.226;14.344;2023-11-19T13:28:39;14.50;;;11.20;;
77111;SDS011;66064;50.226;14.344;2023-11-19T13:31:05;5.85;;;4.47;;
77111;SDS011;66064;50.226;14.344;2023-11-19T13:33:31;4.78;;;3.45;;
77111;SDS011;66064;50.226;14.344;2023-11-19T13:35:58;7.40;;;6.80;;
77111;SDS011;66064;50.226;14.344;2023-11-19T13:38:25;7.70;;;4.93;;
77111;SDS011;66064;50.226;14.344;2023-11-19T13:40:51;6.72;;;4.63;;
77111;SDS011;66064;50.226;14.344;2023-11-19T13:43:18;6.38;;;5.32;;
77111;SDS011;66064;50.226;14.344;2023-11-19T13:45:44;7.20;;;6.13;;
77111;SDS011;66064;50.226;14.344;2023-11-19T13:48:12;5.47;;;4.70;;
77111;SDS011;66064;50.226;14.344;2023-11-19T13:50:38;4.72;;;4.28;;
77111;SDS011;66064;50.226;14.344;2023-11-19T13:53:04;6.53;;;4.97;;
77111;SDS011;66064;50.226;14.344;2023-11-19T13:55:30;6.30;;;5.70;;
77111;SDS011;66064;50.226;14.344;2023-11-19T13:57:57;6.13;;;5.53;;
77111;SDS011;66064;50.226;14.344;2023-11-19T14:00:24;5.28;;;4.78;;
77111;SDS011;66064;50.226;14.344;2023-11-19T14:02:51;7.30;;;6.47;;
77111;SDS011;66064;50.226;14.344;2023-11-19T14:05:18;28.42;;;21.95;;
77111;SDS011;66064;50.226;14.344;2023-11-19T14:07:44;5.57;;;5.05;;
77111;SDS011;66064;50.226;14.344;2023-11-19T14:10:14;11.15;;;9.65;;
77111;SDS011;66064;50.226;14.344;2023-11-19T14:12:40;5.97;;;5.25;;
77111;SDS011;66064;50.226;14.344;2023-11-19T14:15:08;7.07;;;6.30;;
77111;SDS011;66064;50.226;14.344;2023-11-19T14:17:37;7.93;;;7.00;;
77111;SDS011;66064;50.226;14.344;2023-11-19T14:20:04;14.18;;;12.30;;
77111;SDS011;66064;50.226;14.344;2023-11-19T14:22:44;6.63;;;6.13;;
77111;SDS011;66064;50.226;14.344;2023-11-19T14:25:15;6.50;;;5.93;;
77111;SDS011;66064;50.226;14.344;2023-11-19T14:27:44;13.95;;;9.38;;
77111;SDS011;66064;50.226;14.344;2023-11-19T14:30:12;19.85;;;14.68;;
77111;SDS011;66064;50.226;14.344;2023-11-19T14:32:39;11.50;;;9.65;;
77111;SDS011;66064;50.226;14.344;2023-11-19T14:37:34;18.15;;;11.43;;
77111;SDS011;66064;50.226;14.344;2023-11-19T14:40:00;13.18;;;8.40;;
77111;SDS011;66064;50.226;14.344;2023-11-19T14:42:29;8.60;;;4.93;;
77111;SDS011;66064;50.226;14.344;2023-11-19T14:44:57;5.72;;;5.10;;
77111;SDS011;66064;50.226;14.344;2023-11-19T14:47:24;6.57;;;4.82;;
77111;SDS011;66064;50.226;14.344;2023-11-19T14:49:50;6.43;;;5.43;;